sensor_id;sensor_type;location;lat;lon;timestamp;P1;durP1;ratioP1;P2;durP2;ratioP2
11113;SDS011;5610;52.154;9.198;2024-01-27T00:00:31;10.70;;;3.83;;
11113;SDS011;5610;52.154;9.198;2024-01-27T00:03:16;17.20;;;4.63;;
11113;SDS011;5610;52.154;9.198;2024-01-27T00:06:01;10.97;;;3.80;;
11113;SDS011;5610;52.154;9.198;2024-01-27T00:08:47;19.70;;;4.33;;
11113;SDS011;5610;52.154;9.198;2024-01-27T00:11:32;17.63;;;5.80;;
11113;SDS011;5610;52.154;9.198;2024-01-27T00:14:18;11.93;;;4.80;;
11113;SDS011;5610;52.154;9.198;2024-01-27T00:17:04;17.43;;;4.53;;
11113;SDS011;5610;52.154;9.198;2024-01-27T00:19:49;21.93;;;4.47;;
11113;SDS011;5610;52.154;9.198;2024-01-27T00:22:35;17.40;;;5.30;;
11113;SDS011;5610;52.154;9.198;2024-01-27T00:25:20;16.80;;;4.80;;
11113;SDS011;5610;52.154;9.198;2024-01-27T00:28:05;18.47;;;4.50;;
11113;SDS011;5610;52.154;9.198;2024-01-27T00:30:52;14.27;;;4.70;;
11113;SDS011;5610;52.154;9.198;2024-01-27T00:33:38;20.83;;;4.67;;
11113;SDS011;5610;52.154;9.198;2024-01-27T00:36:23;18.33;;;5.07;;
11113;SDS011;5610;52.154;9.198;2024-01-27T00:39:08;20.43;;;5.40;;
11113;SDS011;5610;52.154;9.198;2024-01-27T00:41:53;16.37;;;4.20;;
11113;SDS011;5610;52.154;9.198;2024-01-27T00:44:42;12.90;;;3.87;;
11113;SDS011;5610;52.154;9.198;2024-01-27T00:47:28;15.77;;;5.03;;
11113;SDS011;5610;52.154;9.198;2024-01-27T00:50:14;14.47;;;4.60;;
11113;SDS011;5610;52.154;9.198;2024-01-27T00:52:59;13.17;;;4.57;;
11113;SDS011;5610;52.154;9.198;2024-01-27T00:55:44;18.60;;;4.23;;
11113;SDS011;5610;52.154;9.198;2024-01-27T00:58:30;14.63;;;4.10;;
11113;SDS011;5610;52.154;9.198;2024-01-27T01:01:15;14.10;;;4.13;;
11113;SDS011;5610;52.154;9.198;2024-01-27T01:04:01;15.10;;;4.23;;
11113;SDS011;5610;52.154;9.198;2024-01-27T01:06:46;16.97;;;4.63;;
11113;SDS011;5610;52.154;9.198;2024-01-27T01:09:31;24.43;;;5.50;;
11113;SDS011;5610;52.154;9.198;2024-01-27T01:12:17;22.13;;;4.97;;
11113;SDS011;5610;52.154;9.198;2024-01-27T01:15:02;28.40;;;5.43;;
11113;SDS011;5610;52.154;9.198;2024-01-27T01:17:48;20.73;;;5.07;;
11113;SDS011;5610;52.154;9.198;2024-01-27T01:20:35;20.00;;;5.23;;
11113;SDS011;5610;52.154;9.198;2024-01-27T01:23:20;21.23;;;5.03;;
11113;SDS011;5610;52.154;9.198;2024-01-27T01:26:05;26.40;;;5.13;;
11113;SDS011;5610;52.154;9.198;2024-01-27T01:28:51;18.30;;;5.37;;
11113;SDS011;5610;52.154;9.198;2024-01-27T01:31:36;19.30;;;4.20;;
11113;SDS011;5610;52.154;9.198;2024-01-27T01:34:21;25.03;;;4.27;;
11113;SDS011;5610;52.154;9.198;2024-01-27T01:37:07;15.63;;;4.43;;
11113;SDS011;5610;52.154;9.198;2024-01-27T01:39:52;16.60;;;5.10;;
11113;SDS011;5610;52.154;9.198;2024-01-27T01:42:38;18.83;;;3.97;;
11113;SDS011;5610;52.154;9.198;2024-01-27T01:45:23;19.67;;;4.63;;
11113;SDS011;5610;52.154;9.198;2024-01-27T01:48:08;19.23;;;3.63;;
11113;SDS011;5610;52.154;9.198;2024-01-27T01:50:54;15.93;;;4.47;;
11113;SDS011;5610;52.154;9.198;2024-01-27T01:53:41;25.27;;;5.47;;
11113;SDS011;5610;52.154;9.198;2024-01-27T01:56:27;20.80;;;6.10;;
11113;SDS011;5610;52.154;9.198;2024-01-27T01:59:13;19.63;;;4.90;;
11113;SDS011;5610;52.154;9.198;2024-01-27T02:01:58;19.23;;;5.30;;
11113;SDS011;5610;52.154;9.198;2024-01-27T02:04:43;21.70;;;5.00;;
11113;SDS011;5610;52.154;9.198;2024-01-27T02:07:30;18.90;;;4.37;;
11113;SDS011;5610;52.154;9.198;2024-01-27T02:10:17;12.23;;;4.00;;
11113;SDS011;5610;52.154;9.198;2024-01-27T02:13:03;15.40;;;4.37;;
11113;SDS011;5610;52.154;9.198;2024-01-27T02:15:49;24.03;;;5.43;;
11113;SDS011;5610;52.154;9.198;2024-01-27T02:18:35;23.00;;;5.30;;
11113;SDS011;5610;52.154;9.198;2024-01-27T02:21:21;13.97;;;4.20;;
11113;SDS011;5610;52.154;9.198;2024-01-27T02:24:08;17.47;;;4.90;;
11113;SDS011;5610;52.154;9.198;2024-01-27T02:26:54;16.53;;;4.43;;
11113;SDS011;5610;52.154;9.198;2024-01-27T02:29:39;18.10;;;5.10;;
11113;SDS011;5610;52.154;9.198;2024-01-27T02:32:25;21.43;;;5.17;;
11113;SDS011;5610;52.154;9.198;2024-01-27T02:35:10;17.10;;;4.70;;
11113;SDS011;5610;52.154;9.198;2024-01-27T02:37:56;16.00;;;5.17;;
11113;SDS011;5610;52.154;9.198;2024-01-27T02:40:43;22.03;;;5.80;;
11113;SDS011;5610;52.154;9.198;2024-01-27T02:43:28;17.33;;;5.23;;
11113;SDS011;5610;52.154;9.198;2024-01-27T02:46:14;18.37;;;5.23;;
11113;SDS011;5610;52.154;9.198;2024-01-27T02:48:59;15.20;;;4.80;;
11113;SDS011;5610;52.154;9.198;2024-01-27T02:51:44;14.37;;;4.60;;
11113;SDS011;5610;52.154;9.198;2024-01-27T02:54:30;20.83;;;5.07;;
11113;SDS011;5610;52.154;9.198;2024-01-27T02:57:16;12.97;;;4.40;;
11113;SDS011;5610;52.154;9.198;2024-01-27T03:00:03;13.90;;;4.77;;
11113;SDS011;5610;52.154;9.198;2024-01-27T03:02:49;16.67;;;5.00;;
11113;SDS011;5610;52.154;9.198;2024-01-27T03:05:34;13.47;;;4.27;;
11113;SDS011;5610;52.154;9.198;2024-01-27T03:08:19;21.60;;;5.47;;
11113;SDS011;5610;52.154;9.198;2024-01-27T03:11:05;17.00;;;4.47;;
11113;SDS011;5610;52.154;9.198;2024-01-27T03:13:51;17.17;;;4.70;;
11113;SDS011;5610;52.154;9.198;2024-01-27T03:16:36;16.30;;;5.07;;
11113;SDS011;5610;52.154;9.198;2024-01-27T03:19:21;17.90;;;5.60;;
11113;SDS011;5610;52.154;9.198;2024-01-27T03:22:07;16.40;;;5.73;;
11113;SDS011;5610;52.154;9.198;2024-01-27T03:24:52;14.47;;;5.40;;
11113;SDS011;5610;52.154;9.198;2024-01-27T03:27:39;16.50;;;5.20;;
11113;SDS011;5610;52.154;9.198;2024-01-27T03:30:25;17.10;;;5.37;;
11113;SDS011;5610;52.154;9.198;2024-01-27T03:33:11;17.27;;;5.03;;
11113;SDS011;5610;52.154;9.198;2024-01-27T03:35:56;26.83;;;5.70;;
11113;SDS011;5610;52.154;9.198;2024-01-27T03:38:41;18.60;;;4.53;;
11113;SDS011;5610;52.154;9.198;2024-01-27T03:41:27;14.60;;;5.13;;
11113;SDS011;5610;52.154;9.198;2024-01-27T03:44:12;13.93;;;5.20;;
11113;SDS011;5610;52.154;9.198;2024-01-27T03:46:58;12.00;;;5.50;;
11113;SDS011;5610;52.154;9.198;2024-01-27T03:49:44;9.83;;;4.60;;
11113;SDS011;5610;52.154;9.198;2024-01-27T03:52:29;17.93;;;5.00;;
11113;SDS011;5610;52.154;9.198;2024-01-27T03:55:14;17.90;;;5.50;;
11113;SDS011;5610;52.154;9.198;2024-01-27T03:57:59;14.00;;;5.07;;
11113;SDS011;5610;52.154;9.198;2024-01-27T04:00:44;12.40;;;4.43;;
11113;SDS011;5610;52.154;9.198;2024-01-27T04:03:31;24.83;;;5.43;;
11113;SDS011;5610;52.154;9.198;2024-01-27T04:06:16;12.60;;;4.63;;
11113;SDS011;5610;52.154;9.198;2024-01-27T04:09:01;12.17;;;4.90;;
11113;SDS011;5610;52.154;9.198;2024-01-27T04:11:46;13.17;;;4.90;;
11113;SDS011;5610;52.154;9.198;2024-01-27T04:14:32;11.17;;;4.93;;
11113;SDS011;5610;52.154;9.198;2024-01-27T04:17:17;21.57;;;5.03;;
11113;SDS011;5610;52.154;9.198;2024-01-27T04:20:04;12.60;;;5.30;;
11113;SDS011;5610;52.154;9.198;2024-01-27T04:22:50;11.73;;;5.60;;
11113;SDS011;5610;52.154;9.198;2024-01-27T04:25:36;11.73;;;4.70;;
11113;SDS011;5610;52.154;9.198;2024-01-27T04:28:21;11.97;;;4.93;;
11113;SDS011;5610;52.154;9.198;2024-01-27T04:31:07;15.93;;;5.40;;
11113;SDS011;5610;52.154;9.198;2024-01-27T04:33:52;11.03;;;4.53;;
11113;SDS011;5610;52.154;9.198;2024-01-27T04:36:38;17.23;;;4.63;;
11113;SDS011;5610;52.154;9.198;2024-01-27T04:39:24;15.30;;;4.27;;
11113;SDS011;5610;52.154;9.198;2024-01-27T04:42:09;13.80;;;5.07;;
11113;SDS011;5610;52.154;9.198;2024-01-27T04:44:55;23.63;;;5.57;;
11113;SDS011;5610;52.154;9.198;2024-01-27T04:47:40;18.57;;;5.00;;
11113;SDS011;5610;52.154;9.198;2024-01-27T04:50:25;27.50;;;6.23;;
11113;SDS011;5610;52.154;9.198;2024-01-27T04:53:11;23.20;;;5.33;;
11113;SDS011;5610;52.154;9.198;2024-01-27T04:55:57;14.90;;;5.30;;
11113;SDS011;5610;52.154;9.198;2024-01-27T04:58:42;11.43;;;4.70;;
11113;SDS011;5610;52.154;9.198;2024-01-27T05:01:27;15.00;;;5.00;;
11113;SDS011;5610;52.154;9.198;2024-01-27T05:04:13;13.20;;;5.73;;
11113;SDS011;5610;52.154;9.198;2024-01-27T05:06:58;19.50;;;5.00;;
11113;SDS011;5610;52.154;9.198;2024-01-27T05:09:45;13.90;;;4.53;;
11113;SDS011;5610;52.154;9.198;2024-01-27T05:12:31;19.63;;;5.00;;
11113;SDS011;5610;52.154;9.198;2024-01-27T05:15:16;14.67;;;4.97;;
11113;SDS011;5610;52.154;9.198;2024-01-27T05:18:02;17.30;;;5.77;;
11113;SDS011;5610;52.154;9.198;2024-01-27T05:20:47;19.43;;;4.27;;
11113;SDS011;5610;52.154;9.198;2024-01-27T05:23:32;17.33;;;5.00;;
11113;SDS011;5610;52.154;9.198;2024-01-27T05:26:18;15.17;;;4.80;;
11113;SDS011;5610;52.154;9.198;2024-01-27T05:29:03;12.97;;;5.53;;
11113;SDS011;5610;52.154;9.198;2024-01-27T05:31:49;16.03;;;5.50;;
11113;SDS011;5610;52.154;9.198;2024-01-27T05:34:34;15.80;;;5.63;;
11113;SDS011;5610;52.154;9.198;2024-01-27T05:37:19;17.37;;;5.60;;
11113;SDS011;5610;52.154;9.198;2024-01-27T05:40:05;12.77;;;5.10;;
11113;SDS011;5610;52.154;9.198;2024-01-27T05:42:53;20.30;;;7.93;;
11113;SDS011;5610;52.154;9.198;2024-01-27T05:45:38;14.90;;;6.80;;
11113;SDS011;5610;52.154;9.198;2024-01-27T05:48:23;14.33;;;5.87;;
11113;SDS011;5610;52.154;9.198;2024-01-27T05:51:08;19.27;;;12.37;;
11113;SDS011;5610;52.154;9.198;2024-01-27T05:53:54;23.80;;;11.37;;
11113;SDS011;5610;52.154;9.198;2024-01-27T05:56:39;12.63;;;5.63;;
11113;SDS011;5610;52.154;9.198;2024-01-27T05:59:25;13.80;;;6.68;;
11113;SDS011;5610;52.154;9.198;2024-01-27T06:02:11;15.18;;;8.15;;
11113;SDS011;5610;52.154;9.198;2024-01-27T06:04:56;18.05;;;7.97;;
11113;SDS011;5610;52.154;9.198;2024-01-27T06:07:42;15.25;;;8.82;;
11113;SDS011;5610;52.154;9.198;2024-01-27T06:10:29;22.33;;;9.73;;
11113;SDS011;5610;52.154;9.198;2024-01-27T06:13:15;15.32;;;7.47;;
11113;SDS011;5610;52.154;9.198;2024-01-27T06:16:02;16.48;;;8.27;;
11113;SDS011;5610;52.154;9.198;2024-01-27T06:18:52;19.05;;;8.13;;
11113;SDS011;5610;52.154;9.198;2024-01-27T06:21:38;15.60;;;8.23;;
11113;SDS011;5610;52.154;9.198;2024-01-27T06:24:23;18.88;;;8.98;;
11113;SDS011;5610;52.154;9.198;2024-01-27T06:27:08;21.02;;;7.70;;
11113;SDS011;5610;52.154;9.198;2024-01-27T06:29:53;14.43;;;6.68;;
11113;SDS011;5610;52.154;9.198;2024-01-27T06:32:39;17.23;;;7.18;;
11113;SDS011;5610;52.154;9.198;2024-01-27T06:35:25;13.30;;;6.68;;
11113;SDS011;5610;52.154;9.198;2024-01-27T06:38:10;17.30;;;6.07;;
11113;SDS011;5610;52.154;9.198;2024-01-27T06:40:55;17.40;;;7.57;;
11113;SDS011;5610;52.154;9.198;2024-01-27T06:43:40;13.23;;;6.25;;
11113;SDS011;5610;52.154;9.198;2024-01-27T06:46:25;18.40;;;7.07;;
11113;SDS011;5610;52.154;9.198;2024-01-27T06:49:11;14.93;;;7.18;;
11113;SDS011;5610;52.154;9.198;2024-01-27T06:51:57;14.85;;;6.50;;
11113;SDS011;5610;52.154;9.198;2024-01-27T06:54:42;20.83;;;7.18;;
11113;SDS011;5610;52.154;9.198;2024-01-27T06:57:28;14.27;;;6.65;;
11113;SDS011;5610;52.154;9.198;2024-01-27T07:00:13;15.52;;;6.53;;
11113;SDS011;5610;52.154;9.198;2024-01-27T07:02:59;13.75;;;7.63;;
11113;SDS011;5610;52.154;9.198;2024-01-27T07:05:45;11.27;;;6.78;;
11113;SDS011;5610;52.154;9.198;2024-01-27T07:08:31;18.27;;;7.05;;
11113;SDS011;5610;52.154;9.198;2024-01-27T07:11:16;12.30;;;6.20;;
11113;SDS011;5610;52.154;9.198;2024-01-27T07:14:01;16.75;;;7.15;;
11113;SDS011;5610;52.154;9.198;2024-01-27T07:16:46;16.85;;;7.85;;
11113;SDS011;5610;52.154;9.198;2024-01-27T07:19:31;13.35;;;7.35;;
11113;SDS011;5610;52.154;9.198;2024-01-27T07:22:18;14.90;;;7.20;;
11113;SDS011;5610;52.154;9.198;2024-01-27T07:25:04;16.08;;;6.95;;
11113;SDS011;5610;52.154;9.198;2024-01-27T07:27:51;15.85;;;7.20;;
11113;SDS011;5610;52.154;9.198;2024-01-27T07:30:36;14.73;;;7.65;;
11113;SDS011;5610;52.154;9.198;2024-01-27T07:33:21;16.13;;;7.20;;
11113;SDS011;5610;52.154;9.198;2024-01-27T07:36:08;24.40;;;12.98;;
11113;SDS011;5610;52.154;9.198;2024-01-27T07:38:56;20.17;;;10.63;;
11113;SDS011;5610;52.154;9.198;2024-01-27T07:41:41;17.50;;;8.35;;
11113;SDS011;5610;52.154;9.198;2024-01-27T07:44:27;18.27;;;8.82;;
11113;SDS011;5610;52.154;9.198;2024-01-27T07:47:12;13.60;;;7.65;;
11113;SDS011;5610;52.154;9.198;2024-01-27T07:49:57;11.05;;;7.82;;
11113;SDS011;5610;52.154;9.198;2024-01-27T07:52:43;15.02;;;7.63;;
11113;SDS011;5610;52.154;9.198;2024-01-27T07:55:29;19.77;;;7.15;;
11113;SDS011;5610;52.154;9.198;2024-01-27T07:58:14;20.00;;;8.85;;
11113;SDS011;5610;52.154;9.198;2024-01-27T08:00:59;18.73;;;8.65;;
11113;SDS011;5610;52.154;9.198;2024-01-27T08:03:45;22.65;;;7.95;;
11113;SDS011;5610;52.154;9.198;2024-01-27T08:06:30;18.73;;;8.25;;
11113;SDS011;5610;52.154;9.198;2024-01-27T08:09:15;17.38;;;8.50;;
11113;SDS011;5610;52.154;9.198;2024-01-27T08:12:02;17.42;;;8.57;;
11113;SDS011;5610;52.154;9.198;2024-01-27T08:14:48;13.60;;;8.43;;
11113;SDS011;5610;52.154;9.198;2024-01-27T08:17:33;15.73;;;8.82;;
11113;SDS011;5610;52.154;9.198;2024-01-27T08:20:18;16.02;;;9.15;;
11113;SDS011;5610;52.154;9.198;2024-01-27T08:23:03;17.48;;;8.57;;
11113;SDS011;5610;52.154;9.198;2024-01-27T08:25:49;17.33;;;8.43;;
11113;SDS011;5610;52.154;9.198;2024-01-27T08:28:37;21.77;;;8.50;;
11113;SDS011;5610;52.154;9.198;2024-01-27T08:31:23;14.80;;;9.15;;
11113;SDS011;5610;52.154;9.198;2024-01-27T08:34:08;15.48;;;8.32;;
11113;SDS011;5610;52.154;9.198;2024-01-27T08:37:01;18.90;;;9.35;;
11113;SDS011;5610;52.154;9.198;2024-01-27T08:39:46;18.02;;;9.30;;
11113;SDS011;5610;52.154;9.198;2024-01-27T08:42:31;18.67;;;9.10;;
11113;SDS011;5610;52.154;9.198;2024-01-27T08:45:19;16.23;;;8.83;;
11113;SDS011;5610;52.154;9.198;2024-01-27T08:48:05;19.30;;;8.93;;
11113;SDS011;5610;52.154;9.198;2024-01-27T08:50:50;18.27;;;9.07;;
11113;SDS011;5610;52.154;9.198;2024-01-27T08:53:36;18.20;;;8.90;;
11113;SDS011;5610;52.154;9.198;2024-01-27T08:56:21;16.00;;;8.95;;
11113;SDS011;5610;52.154;9.198;2024-01-27T08:59:06;14.50;;;8.40;;
11113;SDS011;5610;52.154;9.198;2024-01-27T09:01:53;12.70;;;7.10;;
11113;SDS011;5610;52.154;9.198;2024-01-27T09:04:38;14.17;;;9.43;;
11113;SDS011;5610;52.154;9.198;2024-01-27T09:07:23;15.37;;;10.00;;
11113;SDS011;5610;52.154;9.198;2024-01-27T09:10:09;18.97;;;10.13;;
11113;SDS011;5610;52.154;9.198;2024-01-27T09:12:56;21.43;;;9.40;;
11113;SDS011;5610;52.154;9.198;2024-01-27T09:15:41;17.00;;;10.17;;
11113;SDS011;5610;52.154;9.198;2024-01-27T09:18:27;18.17;;;9.47;;
11113;SDS011;5610;52.154;9.198;2024-01-27T09:21:13;18.63;;;8.90;;
11113;SDS011;5610;52.154;9.198;2024-01-27T09:24:04;17.60;;;8.50;;
11113;SDS011;5610;52.154;9.198;2024-01-27T09:26:49;23.77;;;9.27;;
11113;SDS011;5610;52.154;9.198;2024-01-27T09:29:35;13.13;;;9.87;;
11113;SDS011;5610;52.154;9.198;2024-01-27T09:32:20;16.00;;;9.50;;
11113;SDS011;5610;52.154;9.198;2024-01-27T09:35:07;19.50;;;9.27;;
11113;SDS011;5610;52.154;9.198;2024-01-27T09:37:52;15.60;;;9.40;;
11113;SDS011;5610;52.154;9.198;2024-01-27T09:40:37;20.67;;;9.30;;
11113;SDS011;5610;52.154;9.198;2024-01-27T09:43:23;16.07;;;9.53;;
11113;SDS011;5610;52.154;9.198;2024-01-27T09:46:11;16.90;;;9.50;;
11113;SDS011;5610;52.154;9.198;2024-01-27T09:48:57;19.77;;;12.30;;
11113;SDS011;5610;52.154;9.198;2024-01-27T09:51:44;19.80;;;11.07;;
11113;SDS011;5610;52.154;9.198;2024-01-27T09:54:29;17.50;;;10.53;;
11113;SDS011;5610;52.154;9.198;2024-01-27T09:57:14;23.53;;;13.60;;
11113;SDS011;5610;52.154;9.198;2024-01-27T10:00:03;20.80;;;14.10;;
11113;SDS011;5610;52.154;9.198;2024-01-27T10:02:48;19.87;;;10.70;;
11113;SDS011;5610;52.154;9.198;2024-01-27T10:05:34;19.70;;;10.23;;
11113;SDS011;5610;52.154;9.198;2024-01-27T10:08:23;13.57;;;8.27;;
11113;SDS011;5610;52.154;9.198;2024-01-27T10:11:09;12.17;;;8.73;;
11113;SDS011;5610;52.154;9.198;2024-01-27T10:13:54;13.50;;;8.43;;
11113;SDS011;5610;52.154;9.198;2024-01-27T10:16:42;19.60;;;9.50;;
11113;SDS011;5610;52.154;9.198;2024-01-27T10:19:27;14.67;;;7.87;;
11113;SDS011;5610;52.154;9.198;2024-01-27T10:22:12;15.33;;;8.13;;
11113;SDS011;5610;52.154;9.198;2024-01-27T10:24:58;14.80;;;8.90;;
11113;SDS011;5610;52.154;9.198;2024-01-27T10:27:45;16.27;;;8.80;;
11113;SDS011;5610;52.154;9.198;2024-01-27T10:30:31;14.80;;;7.90;;
11113;SDS011;5610;52.154;9.198;2024-01-27T10:33:16;19.07;;;9.00;;
11113;SDS011;5610;52.154;9.198;2024-01-27T10:36:01;13.17;;;7.07;;
11113;SDS011;5610;52.154;9.198;2024-01-27T10:38:47;14.90;;;7.13;;
11113;SDS011;5610;52.154;9.198;2024-01-27T10:41:34;9.60;;;6.80;;
11113;SDS011;5610;52.154;9.198;2024-01-27T10:44:20;15.13;;;8.40;;
11113;SDS011;5610;52.154;9.198;2024-01-27T10:47:06;14.03;;;7.40;;
11113;SDS011;5610;52.154;9.198;2024-01-27T10:50:00;12.00;;;7.40;;
11113;SDS011;5610;52.154;9.198;2024-01-27T10:52:46;11.60;;;7.23;;
11113;SDS011;5610;52.154;9.198;2024-01-27T10:55:33;12.80;;;7.10;;
11113;SDS011;5610;52.154;9.198;2024-01-27T10:58:21;13.60;;;7.30;;
11113;SDS011;5610;52.154;9.198;2024-01-27T11:01:07;17.03;;;7.37;;
11113;SDS011;5610;52.154;9.198;2024-01-27T11:03:55;17.27;;;8.00;;
11113;SDS011;5610;52.154;9.198;2024-01-27T11:06:41;12.73;;;6.63;;
11113;SDS011;5610;52.154;9.198;2024-01-27T11:09:27;10.57;;;6.80;;
11113;SDS011;5610;52.154;9.198;2024-01-27T11:12:14;14.73;;;7.50;;
11113;SDS011;5610;52.154;9.198;2024-01-27T11:15:01;12.73;;;6.60;;
11113;SDS011;5610;52.154;9.198;2024-01-27T11:17:47;11.30;;;6.20;;
11113;SDS011;5610;52.154;9.198;2024-01-27T11:20:32;13.80;;;6.77;;
11113;SDS011;5610;52.154;9.198;2024-01-27T11:23:18;14.73;;;6.77;;
11113;SDS011;5610;52.154;9.198;2024-01-27T11:26:04;12.70;;;6.07;;
11113;SDS011;5610;52.154;9.198;2024-01-27T11:28:50;11.27;;;5.90;;
11113;SDS011;5610;52.154;9.198;2024-01-27T11:31:39;13.97;;;6.43;;
11113;SDS011;5610;52.154;9.198;2024-01-27T11:34:25;10.47;;;5.60;;
11113;SDS011;5610;52.154;9.198;2024-01-27T11:37:11;9.30;;;5.47;;
11113;SDS011;5610;52.154;9.198;2024-01-27T11:40:03;10.03;;;5.67;;
11113;SDS011;5610;52.154;9.198;2024-01-27T11:42:55;13.43;;;6.33;;
11113;SDS011;5610;52.154;9.198;2024-01-27T11:45:41;13.43;;;6.10;;
11113;SDS011;5610;52.154;9.198;2024-01-27T11:48:28;12.27;;;6.50;;
11113;SDS011;5610;52.154;9.198;2024-01-27T11:51:13;9.87;;;5.40;;
11113;SDS011;5610;52.154;9.198;2024-01-27T11:53:58;12.47;;;6.33;;
11113;SDS011;5610;52.154;9.198;2024-01-27T11:56:44;13.27;;;6.40;;
11113;SDS011;5610;52.154;9.198;2024-01-27T11:59:29;11.20;;;6.07;;
11113;SDS011;5610;52.154;9.198;2024-01-27T12:02:14;13.20;;;6.13;;
11113;SDS011;5610;52.154;9.198;2024-01-27T12:05:01;9.87;;;5.13;;
11113;SDS011;5610;52.154;9.198;2024-01-27T12:07:46;7.60;;;5.10;;
11113;SDS011;5610;52.154;9.198;2024-01-27T12:10:32;10.23;;;5.80;;
11113;SDS011;5610;52.154;9.198;2024-01-27T12:13:17;8.87;;;4.83;;
11113;SDS011;5610;52.154;9.198;2024-01-27T12:16:03;8.23;;;5.17;;
11113;SDS011;5610;52.154;9.198;2024-01-27T12:18:51;12.07;;;5.53;;
11113;SDS011;5610;52.154;9.198;2024-01-27T12:21:46;9.57;;;5.37;;
11113;SDS011;5610;52.154;9.198;2024-01-27T12:24:32;8.93;;;4.70;;
11113;SDS011;5610;52.154;9.198;2024-01-27T12:27:17;12.57;;;5.53;;
11113;SDS011;5610;52.154;9.198;2024-01-27T12:30:03;10.60;;;5.60;;
11113;SDS011;5610;52.154;9.198;2024-01-27T12:32:49;13.80;;;5.47;;
11113;SDS011;5610;52.154;9.198;2024-01-27T12:35:34;8.57;;;4.90;;
11113;SDS011;5610;52.154;9.198;2024-01-27T12:38:21;13.63;;;5.90;;
11113;SDS011;5610;52.154;9.198;2024-01-27T12:41:06;10.63;;;4.73;;
11113;SDS011;5610;52.154;9.198;2024-01-27T12:43:52;13.03;;;6.50;;
11113;SDS011;5610;52.154;9.198;2024-01-27T12:46:37;18.00;;;12.40;;
11113;SDS011;5610;52.154;9.198;2024-01-27T12:49:22;16.37;;;11.50;;
11113;SDS011;5610;52.154;9.198;2024-01-27T12:52:08;23.10;;;17.90;;
11113;SDS011;5610;52.154;9.198;2024-01-27T12:54:54;8.30;;;4.50;;
11113;SDS011;5610;52.154;9.198;2024-01-27T12:57:40;13.50;;;5.00;;
11113;SDS011;5610;52.154;9.198;2024-01-27T13:00:25;9.93;;;4.37;;
11113;SDS011;5610;52.154;9.198;2024-01-27T13:03:11;13.73;;;4.57;;
11113;SDS011;5610;52.154;9.198;2024-01-27T13:05:56;11.23;;;4.57;;
11113;SDS011;5610;52.154;9.198;2024-01-27T13:08:42;8.00;;;4.13;;
11113;SDS011;5610;52.154;9.198;2024-01-27T13:11:28;8.20;;;4.10;;
11113;SDS011;5610;52.154;9.198;2024-01-27T13:14:14;9.33;;;4.70;;
11113;SDS011;5610;52.154;9.198;2024-01-27T13:17:01;8.43;;;3.90;;
11113;SDS011;5610;52.154;9.198;2024-01-27T13:19:47;6.43;;;3.17;;
11113;SDS011;5610;52.154;9.198;2024-01-27T13:22:32;7.90;;;3.40;;
11113;SDS011;5610;52.154;9.198;2024-01-27T13:25:17;9.00;;;4.23;;
11113;SDS011;5610;52.154;9.198;2024-01-27T13:28:03;9.07;;;3.83;;
11113;SDS011;5610;52.154;9.198;2024-01-27T13:30:50;6.90;;;3.57;;
11113;SDS011;5610;52.154;9.198;2024-01-27T13:33:35;6.03;;;3.80;;
11113;SDS011;5610;52.154;9.198;2024-01-27T13:36:20;8.20;;;3.43;;
11113;SDS011;5610;52.154;9.198;2024-01-27T13:39:06;8.10;;;4.20;;
11113;SDS011;5610;52.154;9.198;2024-01-27T13:41:52;7.33;;;3.50;;
11113;SDS011;5610;52.154;9.198;2024-01-27T13:44:38;11.80;;;3.80;;
11113;SDS011;5610;52.154;9.198;2024-01-27T13:47:24;6.83;;;4.27;;
11113;SDS011;5610;52.154;9.198;2024-01-27T13:50:09;9.47;;;4.10;;
11113;SDS011;5610;52.154;9.198;2024-01-27T13:52:56;10.77;;;4.20;;
11113;SDS011;5610;52.154;9.198;2024-01-27T13:55:41;9.17;;;3.67;;
11113;SDS011;5610;52.154;9.198;2024-01-27T13:58:28;9.37;;;4.53;;
11113;SDS011;5610;52.154;9.198;2024-01-27T14:01:14;9.67;;;3.00;;
11113;SDS011;5610;52.154;9.198;2024-01-27T14:04:00;13.27;;;4.10;;
11113;SDS011;5610;52.154;9.198;2024-01-27T14:06:45;11.77;;;3.30;;
11113;SDS011;5610;52.154;9.198;2024-01-27T14:09:31;10.73;;;3.20;;
11113;SDS011;5610;52.154;9.198;2024-01-27T14:12:16;11.27;;;3.57;;
11113;SDS011;5610;52.154;9.198;2024-01-27T14:15:02;11.70;;;4.20;;
11113;SDS011;5610;52.154;9.198;2024-01-27T14:17:52;11.27;;;4.27;;
11113;SDS011;5610;52.154;9.198;2024-01-27T14:20:37;11.07;;;3.53;;
11113;SDS011;5610;52.154;9.198;2024-01-27T14:23:22;11.40;;;4.07;;
11113;SDS011;5610;52.154;9.198;2024-01-27T14:26:08;7.93;;;4.17;;
11113;SDS011;5610;52.154;9.198;2024-01-27T14:28:58;11.53;;;5.27;;
11113;SDS011;5610;52.154;9.198;2024-01-27T14:31:44;14.37;;;7.67;;
11113;SDS011;5610;52.154;9.198;2024-01-27T14:34:30;16.47;;;5.83;;
11113;SDS011;5610;52.154;9.198;2024-01-27T14:37:16;12.77;;;5.10;;
11113;SDS011;5610;52.154;9.198;2024-01-27T14:40:02;9.53;;;5.73;;
11113;SDS011;5610;52.154;9.198;2024-01-27T14:42:48;8.47;;;5.33;;
11113;SDS011;5610;52.154;9.198;2024-01-27T14:45:33;9.53;;;4.50;;
11113;SDS011;5610;52.154;9.198;2024-01-27T14:48:19;10.30;;;4.83;;
11113;SDS011;5610;52.154;9.198;2024-01-27T14:51:05;10.17;;;3.67;;
11113;SDS011;5610;52.154;9.198;2024-01-27T14:53:51;8.90;;;3.17;;
11113;SDS011;5610;52.154;9.198;2024-01-27T14:56:36;10.00;;;3.23;;
11113;SDS011;5610;52.154;9.198;2024-01-27T14:59:21;8.60;;;4.33;;
11113;SDS011;5610;52.154;9.198;2024-01-27T15:02:07;14.13;;;3.50;;
11113;SDS011;5610;52.154;9.198;2024-01-27T15:04:53;9.27;;;4.20;;
11113;SDS011;5610;52.154;9.198;2024-01-27T15:07:39;9.77;;;4.40;;
11113;SDS011;5610;52.154;9.198;2024-01-27T15:10:25;12.60;;;4.77;;
11113;SDS011;5610;52.154;9.198;2024-01-27T15:13:10;13.43;;;4.23;;
11113;SDS011;5610;52.154;9.198;2024-01-27T15:15:56;14.30;;;4.50;;
11113;SDS011;5610;52.154;9.198;2024-01-27T15:18:41;7.70;;;3.60;;
11113;SDS011;5610;52.154;9.198;2024-01-27T15:21:27;9.87;;;3.93;;
11113;SDS011;5610;52.154;9.198;2024-01-27T15:24:14;20.93;;;5.30;;
11113;SDS011;5610;52.154;9.198;2024-01-27T15:26:59;8.20;;;4.50;;
11113;SDS011;5610;52.154;9.198;2024-01-27T15:29:44;12.23;;;4.30;;
11113;SDS011;5610;52.154;9.198;2024-01-27T15:32:30;14.20;;;4.40;;
11113;SDS011;5610;52.154;9.198;2024-01-27T15:35:15;11.37;;;4.80;;
11113;SDS011;5610;52.154;9.198;2024-01-27T15:38:01;11.50;;;5.67;;
11113;SDS011;5610;52.154;9.198;2024-01-27T15:40:47;14.00;;;4.47;;
11113;SDS011;5610;52.154;9.198;2024-01-27T15:43:33;13.10;;;4.93;;
11113;SDS011;5610;52.154;9.198;2024-01-27T15:46:18;14.50;;;5.00;;
11113;SDS011;5610;52.154;9.198;2024-01-27T15:49:03;13.07;;;4.63;;
11113;SDS011;5610;52.154;9.198;2024-01-27T15:51:49;10.93;;;5.80;;
11113;SDS011;5610;52.154;9.198;2024-01-27T15:54:34;10.70;;;5.20;;
11113;SDS011;5610;52.154;9.198;2024-01-27T15:57:20;15.17;;;5.90;;
11113;SDS011;5610;52.154;9.198;2024-01-27T16:00:06;15.23;;;4.83;;
11113;SDS011;5610;52.154;9.198;2024-01-27T16:02:54;11.27;;;4.90;;
11113;SDS011;5610;52.154;9.198;2024-01-27T16:05:39;11.93;;;4.73;;
11113;SDS011;5610;52.154;9.198;2024-01-27T16:08:25;13.57;;;4.70;;
11113;SDS011;5610;52.154;9.198;2024-01-27T16:11:10;13.87;;;4.10;;
11113;SDS011;5610;52.154;9.198;2024-01-27T16:13:57;12.77;;;5.10;;
11113;SDS011;5610;52.154;9.198;2024-01-27T16:16:42;17.20;;;8.73;;
11113;SDS011;5610;52.154;9.198;2024-01-27T16:19:27;25.87;;;14.67;;
11113;SDS011;5610;52.154;9.198;2024-01-27T16:22:13;19.10;;;10.27;;
11113;SDS011;5610;52.154;9.198;2024-01-27T16:25:00;17.83;;;10.70;;
11113;SDS011;5610;52.154;9.198;2024-01-27T16:27:46;21.10;;;12.40;;
11113;SDS011;5610;52.154;9.198;2024-01-27T16:30:32;18.13;;;10.50;;
11113;SDS011;5610;52.154;9.198;2024-01-27T16:33:17;15.90;;;5.97;;
11113;SDS011;5610;52.154;9.198;2024-01-27T16:36:03;22.53;;;10.57;;
11113;SDS011;5610;52.154;9.198;2024-01-27T16:38:50;24.63;;;14.90;;